Flight Number: EUR1203 Duration: 1:20
Departure: Chisinau Int'l Airport (LUKK) at 18:25 Distance: 385 Nm
Arrival: Beograd/Belgrade (LYBE) at 19:45 Equipment: A321

Weather Information
Chisinau International Airport, Moldova (LUKK) 46-55-40N 028-55-51E Jan 21, 2019 - 07:00 AM EST / 2019.01.21 1200 UTC
Wind: from the NNW (340 degrees) at 15 MPH (13 KT):0
Visibility: greater than 7 mile(s):0
Sky conditions: mostly cloudy Temperature: 30 F (-1 C)
Windchill: 19 F (-7 C):1 Dew Point: 24 F (-4 C) Relative Humidity: 80% Pressure (altimeter): 30.12 in. Hg (1020 hPa)
ob: LUKK 211200Z 34013KT 9999 BKN016 M01/M04 Q1020 R08/250155 NOSIG cycle: 12
Sunrise: 05:44 Sunset: 14:46 (UTC)

Beograd / Surcin, Serbia and Montenegro (LYBE) 44-49N 020-17E 99M Jan 21, 2019 - 07:00 AM EST / 2019.01.21 1200 UTC
Wind: from the ENE (060 degrees) at 5 MPH (4 KT) (direction variable):0
Visibility: greater than 7 mile(s):0
Sky conditions: mostly cloudy Temperature: 35 F (2 C)
Windchill: 30 F (-1 C):1 Dew Point: 30 F (-1 C) Relative Humidity: 80% Pressure (altimeter): 30.15 in. Hg (1021 hPa)
ob: LYBE 211200Z 06004KT 010V090 9999 FEW014 BKN033 02/M01 Q1021 NOSIG cycle: 12
Sunrise: 06:12 Sunset: 15:27 (UTC)

TAF:2019/01/21 12:21 TAF TAF LYBE 211100Z 2112/2212 06006KT 8000 SCT010 OVC030 TX03/2113Z TNM02/2205Z BECMG 2116/2118 BKN008 OVC023 TEMPO 2203/2212 4000 -SN

Previous Pireps for this route
Date Aircraft Flight time Fuel used Landing rate On time
2013-04-19A32101.329410-366No
2014-11-23B757-20001.1912862-206Charter
2015-04-19A32101.318557-212Yes
2015-08-11A3211.20163800Yes
(pireps marked green are flown by you)

Route map